JST534 YMML-YSSY
Flight info
| Callsign | JST534 |
|---|---|
| Flight time | 1h 5m |
| Altitude | 37000 |
| Route | DCT ML H129 DOSEL Y59 RIVET RIVET4 |
| Aircraft | A20N/M-SDE2E3FGHIRWXY/LB1 |
Departure
| Time | 2026-05-04 10:20 |
|---|---|
| Airport | Melbourne Airport (YMML) |
Arrival
| Time | 2026-05-04 11:26 |
|---|---|
| Airport | Sydney Kingsford Smith International Airport (YSSY) |
| Time | Latitude | Longitude | Altitude | Speed | Heading |
|---|---|---|---|---|---|
| 2026-05-04 09:25 | -37.67256 | 144.84712 | 360 ft | 0 kts | 170° |
| 2026-05-04 09:53 | -37.67240 | 144.84709 | 359 ft | 2 kts | 174° |
| 2026-05-04 09:53 | -37.67224 | 144.84707 | 362 ft | 2 kts | 180° |
| 2026-05-04 09:54 | -37.67207 | 144.84709 | 362 ft | 2 kts | 195° |
| 2026-05-04 09:54 | -37.67193 | 144.84718 | 362 ft | 2 kts | 231° |
| 2026-05-04 09:54 | -37.67186 | 144.84735 | 354 ft | 2 kts | 258° |
| 2026-05-04 09:54 | -37.67185 | 144.84741 | 357 ft | 0 kts | 261° |
| 2026-05-04 10:02 | -37.67209 | 144.84545 | 364 ft | 5 kts | 261° |
| 2026-05-04 10:04 | -37.67209 | 144.84275 | 371 ft | 6 kts | 264° |
| 2026-05-04 10:04 | -37.67215 | 144.84207 | 368 ft | 10 kts | 264° |
| 2026-05-04 10:04 | -37.67229 | 144.84111 | 371 ft | 13 kts | 241° |
| 2026-05-04 10:04 | -37.67328 | 144.84084 | 367 ft | 18 kts | 173° |
| 2026-05-04 10:05 | -37.67475 | 144.84111 | 364 ft | 24 kts | 171° |
| 2026-05-04 10:05 | -37.67651 | 144.84144 | 361 ft | 19 kts | 171° |
| 2026-05-04 10:05 | -37.67744 | 144.84162 | 358 ft | 0 kts | 171° |
| 2026-05-04 10:05 | -37.67767 | 144.84166 | 360 ft | 6 kts | 171° |
| 2026-05-04 10:06 | -37.67775 | 144.84167 | 357 ft | 2 kts | 171° |
| 2026-05-04 10:06 | -37.67802 | 144.84172 | 355 ft | 0 kts | 173° |
| 2026-05-04 10:08 | -37.67837 | 144.84171 | 357 ft | 0 kts | 197° |
| 2026-05-04 10:10 | -37.67838 | 144.84171 | 351 ft | 1 kts | 197° |
| 2026-05-04 10:10 | -37.67860 | 144.84150 | 353 ft | 7 kts | 233° |
| 2026-05-04 10:11 | -37.67872 | 144.84117 | 358 ft | 2 kts | 255° |
| 2026-05-04 10:11 | -37.67872 | 144.84113 | 356 ft | 0 kts | 259° |
| 2026-05-04 10:19 | -37.67880 | 144.83978 | 350 ft | 12 kts | 298° |
| 2026-05-04 10:19 | -37.67812 | 144.83955 | 357 ft | 22 kts | 351° |
| 2026-05-04 10:19 | -37.67442 | 144.83886 | 370 ft | 83 kts | 351° |
| 2026-05-04 10:19 | -37.66696 | 144.83748 | 389 ft | 131 kts | 352° |
| 2026-05-04 10:20 | -37.65701 | 144.83574 | 670 ft | 147 kts | 352° |
| 2026-05-04 10:20 | -37.64690 | 144.83385 | 1251 ft | 148 kts | 349° |
| 2026-05-04 10:20 | -37.63686 | 144.83207 | 1957 ft | 146 kts | 350° |
| 2026-05-04 10:20 | -37.62654 | 144.83168 | 2524 ft | 151 kts | 348° |
| 2026-05-04 10:21 | -37.61575 | 144.82976 | 2856 ft | 167 kts | 341° |
| 2026-05-04 10:21 | -37.60360 | 144.82651 | 3182 ft | 193 kts | 343° |
| 2026-05-04 10:21 | -37.58903 | 144.82620 | 3611 ft | 227 kts | 2° |
| 2026-05-04 10:21 | -37.57312 | 144.83299 | 4197 ft | 256 kts | 19° |
| 2026-05-04 10:22 | -37.53951 | 144.85387 | 4972 ft | 271 kts | 20° |
| 2026-05-04 10:22 | -37.52265 | 144.86442 | 5020 ft | 273 kts | 20° |
| 2026-05-04 10:22 | -37.50571 | 144.87487 | 5029 ft | 270 kts | 20° |
| 2026-05-04 10:23 | -37.48870 | 144.88524 | 5028 ft | 273 kts | 20° |
| 2026-05-04 10:23 | -37.47173 | 144.89553 | 5032 ft | 269 kts | 20° |
| 2026-05-04 10:25 | -37.37735 | 145.02185 | 10274 ft | 306 kts | 51° |
| 2026-05-04 10:25 | -37.36453 | 145.04444 | 10689 ft | 328 kts | 51° |
| 2026-05-04 10:25 | -37.35079 | 145.06861 | 10986 ft | 351 kts | 51° |
| 2026-05-04 10:25 | -37.33640 | 145.09399 | 11651 ft | 359 kts | 51° |
| 2026-05-04 10:26 | -37.32211 | 145.11930 | 12481 ft | 363 kts | 51° |
| 2026-05-04 10:26 | -37.30741 | 145.14528 | 13291 ft | 368 kts | 51° |
| 2026-05-04 10:26 | -37.29250 | 145.17159 | 14069 ft | 372 kts | 51° |
| 2026-05-04 10:26 | -37.27743 | 145.19813 | 14810 ft | 375 kts | 51° |
| 2026-05-04 10:27 | -37.26222 | 145.22491 | 15553 ft | 378 kts | 51° |
| 2026-05-04 10:27 | -37.24684 | 145.25195 | 16268 ft | 382 kts | 51° |
| 2026-05-04 10:27 | -37.23130 | 145.27925 | 17006 ft | 385 kts | 51° |
| 2026-05-04 10:27 | -37.21567 | 145.30670 | 17730 ft | 389 kts | 51° |
| 2026-05-04 10:28 | -37.19983 | 145.33447 | 18384 ft | 393 kts | 51° |
| 2026-05-04 10:28 | -37.18408 | 145.36206 | 19006 ft | 395 kts | 50° |
| 2026-05-04 10:28 | -37.16800 | 145.39023 | 19630 ft | 398 kts | 50° |
| 2026-05-04 10:28 | -37.15179 | 145.41857 | 20250 ft | 401 kts | 50° |
| 2026-05-04 10:29 | -37.13544 | 145.44709 | 20830 ft | 405 kts | 50° |
| 2026-05-04 10:29 | -37.11896 | 145.47581 | 21431 ft | 408 kts | 50° |
| 2026-05-04 10:29 | -37.10231 | 145.50483 | 22029 ft | 411 kts | 50° |
| 2026-05-04 10:29 | -37.08554 | 145.53404 | 22608 ft | 414 kts | 50° |
| 2026-05-04 10:30 | -37.06868 | 145.56338 | 23169 ft | 418 kts | 50° |
| 2026-05-04 10:30 | -37.05159 | 145.59308 | 23717 ft | 421 kts | 50° |
| 2026-05-04 10:30 | -37.03467 | 145.62247 | 24170 ft | 424 kts | 49° |
| 2026-05-04 10:30 | -37.01713 | 145.65294 | 24615 ft | 427 kts | 49° |
| 2026-05-04 10:31 | -36.99965 | 145.68325 | 25019 ft | 432 kts | 49° |
| 2026-05-04 10:31 | -36.98203 | 145.71379 | 25468 ft | 434 kts | 48° |
| 2026-05-04 10:32 | -36.87390 | 145.90067 | 27917 ft | 452 kts | 45° |
| 2026-05-04 10:33 | -36.85535 | 145.93259 | 28289 ft | 455 kts | 45° |
| 2026-05-04 10:33 | -36.83671 | 145.96468 | 28691 ft | 457 kts | 45° |
| 2026-05-04 10:33 | -36.82433 | 145.98603 | 28931 ft | 460 kts | 45° |
| 2026-05-04 10:33 | -36.79938 | 146.02898 | 29405 ft | 463 kts | 44° |
| 2026-05-04 10:34 | -36.78031 | 146.06162 | 29738 ft | 464 kts | 44° |
| 2026-05-04 10:34 | -36.76130 | 146.09417 | 30181 ft | 465 kts | 44° |
| 2026-05-04 10:34 | -36.74212 | 146.12693 | 30352 ft | 470 kts | 44° |
| 2026-05-04 10:34 | -36.72928 | 146.14882 | 30541 ft | 472 kts | 44° |
| 2026-05-04 10:35 | -36.70988 | 146.18194 | 30850 ft | 474 kts | 44° |
| 2026-05-04 10:35 | -36.69037 | 146.21521 | 31104 ft | 477 kts | 44° |
| 2026-05-04 10:35 | -36.67076 | 146.24863 | 31451 ft | 478 kts | 44° |
| 2026-05-04 10:35 | -36.65113 | 146.28206 | 31814 ft | 478 kts | 44° |
| 2026-05-04 10:36 | -36.63148 | 146.31550 | 32157 ft | 478 kts | 44° |
| 2026-05-04 10:36 | -36.61183 | 146.34888 | 32455 ft | 478 kts | 45° |
| 2026-05-04 10:36 | -36.59214 | 146.38228 | 32787 ft | 479 kts | 45° |
| 2026-05-04 10:36 | -36.57239 | 146.41575 | 33099 ft | 479 kts | 45° |
| 2026-05-04 10:37 | -36.55289 | 146.44879 | 33416 ft | 480 kts | 45° |
| 2026-05-04 10:37 | -36.53310 | 146.48228 | 33734 ft | 480 kts | 45° |
| 2026-05-04 10:37 | -36.51326 | 146.51583 | 34039 ft | 481 kts | 45° |
| 2026-05-04 10:37 | -36.49347 | 146.54926 | 34278 ft | 481 kts | 45° |
| 2026-05-04 10:39 | -36.37368 | 146.75088 | 35618 ft | 486 kts | 45° |
| 2026-05-04 10:39 | -36.35360 | 146.78457 | 35813 ft | 486 kts | 45° |
| 2026-05-04 10:39 | -36.33347 | 146.81828 | 36002 ft | 487 kts | 45° |
| 2026-05-04 10:40 | -36.31331 | 146.85202 | 36208 ft | 487 kts | 46° |
| 2026-05-04 10:40 | -36.29312 | 146.88581 | 36471 ft | 486 kts | 46° |
| 2026-05-04 10:40 | -36.27297 | 146.91949 | 36657 ft | 487 kts | 46° |
| 2026-05-04 10:40 | -36.25276 | 146.95324 | 36849 ft | 487 kts | 46° |
| 2026-05-04 10:41 | -36.23256 | 146.98693 | 37032 ft | 488 kts | 46° |
| 2026-05-04 10:41 | -36.19245 | 147.05378 | 37057 ft | 485 kts | 46° |
| 2026-05-04 10:42 | -36.15216 | 147.12079 | 37044 ft | 484 kts | 46° |
| 2026-05-04 10:42 | -36.11205 | 147.18733 | 37068 ft | 481 kts | 45° |
| 2026-05-04 10:43 | -36.07190 | 147.25378 | 37055 ft | 482 kts | 45° |
| 2026-05-04 10:45 | -35.91142 | 147.51825 | 37073 ft | 479 kts | 45° |
| 2026-05-04 10:45 | -35.87132 | 147.58397 | 37067 ft | 479 kts | 45° |
| 2026-05-04 10:46 | -35.83127 | 147.64956 | 37087 ft | 480 kts | 45° |
| 2026-05-04 10:46 | -35.79097 | 147.71538 | 37085 ft | 482 kts | 45° |
| 2026-05-04 10:47 | -35.75040 | 147.78156 | 37091 ft | 483 kts | 45° |
| 2026-05-04 10:47 | -35.70993 | 147.84746 | 37099 ft | 482 kts | 44° |
| 2026-05-04 10:49 | -35.54797 | 148.10984 | 37102 ft | 482 kts | 44° |
| 2026-05-04 10:50 | -35.50735 | 148.17534 | 37071 ft | 482 kts | 44° |
| 2026-05-04 10:52 | -35.34491 | 148.43603 | 37097 ft | 482 kts | 44° |
| 2026-05-04 10:52 | -35.30438 | 148.50077 | 37112 ft | 482 kts | 44° |
| 2026-05-04 10:54 | -35.16162 | 148.72783 | 36027 ft | 480 kts | 43° |
| 2026-05-04 10:54 | -35.14122 | 148.76016 | 35777 ft | 479 kts | 43° |
| 2026-05-04 10:56 | -34.99937 | 148.98413 | 34111 ft | 476 kts | 42° |
| 2026-05-04 10:56 | -34.97906 | 149.01608 | 33847 ft | 476 kts | 42° |
| 2026-05-04 10:56 | -34.95878 | 149.04795 | 33578 ft | 475 kts | 43° |
| 2026-05-04 10:57 | -34.93862 | 149.07960 | 33316 ft | 471 kts | 43° |
| 2026-05-04 10:57 | -34.91852 | 149.11116 | 33049 ft | 470 kts | 43° |
| 2026-05-04 10:57 | -34.89835 | 149.14274 | 32763 ft | 473 kts | 43° |
| 2026-05-04 10:57 | -34.87804 | 149.17451 | 32522 ft | 473 kts | 43° |
| 2026-05-04 10:58 | -34.85787 | 149.20608 | 32262 ft | 472 kts | 43° |
| 2026-05-04 10:58 | -34.83797 | 149.23722 | 32015 ft | 472 kts | 43° |
| 2026-05-04 10:58 | -34.81782 | 149.26869 | 31768 ft | 471 kts | 43° |
| 2026-05-04 10:58 | -34.79769 | 149.30010 | 31514 ft | 470 kts | 43° |
| 2026-05-04 10:59 | -34.77772 | 149.33129 | 30909 ft | 465 kts | 43° |
| 2026-05-04 10:59 | -34.75789 | 149.36221 | 30086 ft | 461 kts | 43° |
| 2026-05-04 10:59 | -34.73911 | 149.39380 | 29157 ft | 463 kts | 49° |
| 2026-05-04 10:59 | -34.72333 | 149.42791 | 28359 ft | 461 kts | 54° |
| 2026-05-04 11:00 | -34.70854 | 149.46219 | 27522 ft | 455 kts | 53° |
| 2026-05-04 11:01 | -34.60933 | 149.68928 | 22116 ft | 416 kts | 53° |
| 2026-05-04 11:02 | -34.59578 | 149.72014 | 21323 ft | 411 kts | 54° |
| 2026-05-04 11:02 | -34.58238 | 149.75061 | 20592 ft | 405 kts | 54° |
| 2026-05-04 11:05 | -34.41099 | 150.13835 | 10302 ft | 337 kts | 54° |
| 2026-05-04 11:06 | -34.39981 | 150.16351 | 10126 ft | 344 kts | 54° |
| 2026-05-04 11:06 | -34.38836 | 150.18908 | 10055 ft | 345 kts | 55° |
| 2026-05-04 11:06 | -34.37696 | 150.21463 | 10053 ft | 343 kts | 56° |
| 2026-05-04 11:06 | -34.36578 | 150.23980 | 10050 ft | 332 kts | 55° |
| 2026-05-04 11:08 | -34.29564 | 150.39674 | 10037 ft | 300 kts | 55° |
| 2026-05-04 11:10 | -34.22665 | 150.55102 | 10029 ft | 296 kts | 56° |
| 2026-05-04 11:12 | -34.15791 | 150.70428 | 10027 ft | 298 kts | 56° |
| 2026-05-04 11:12 | -34.14800 | 150.72630 | 10028 ft | 298 kts | 56° |
| 2026-05-04 11:12 | -34.13806 | 150.74834 | 10032 ft | 298 kts | 56° |
| 2026-05-04 11:12 | -34.12835 | 150.76991 | 10015 ft | 292 kts | 56° |
| 2026-05-04 11:13 | -34.11871 | 150.79133 | 10020 ft | 291 kts | 56° |
| 2026-05-04 11:13 | -34.10898 | 150.81285 | 10023 ft | 293 kts | 56° |
| 2026-05-04 11:13 | -34.09926 | 150.83437 | 9924 ft | 289 kts | 56° |
| 2026-05-04 11:13 | -34.08969 | 150.85564 | 9427 ft | 288 kts | 56° |
| 2026-05-04 11:14 | -34.08010 | 150.87696 | 8827 ft | 289 kts | 56° |
| 2026-05-04 11:14 | -34.07055 | 150.89817 | 8261 ft | 288 kts | 56° |
| 2026-05-04 11:14 | -34.06101 | 150.91936 | 7654 ft | 287 kts | 56° |
| 2026-05-04 11:16 | -34.06829 | 151.06721 | 6023 ft | 299 kts | 144° |
| 2026-05-04 11:16 | -34.08633 | 151.07921 | 6021 ft | 294 kts | 164° |
| 2026-05-04 11:16 | -34.10602 | 151.08463 | 5964 ft | 291 kts | 174° |
| 2026-05-04 11:17 | -34.12605 | 151.08921 | 5689 ft | 292 kts | 172° |
| 2026-05-04 11:17 | -34.14606 | 151.09417 | 5265 ft | 294 kts | 172° |
| 2026-05-04 11:19 | -34.24120 | 151.18015 | 3038 ft | 274 kts | 70° |
| 2026-05-04 11:19 | -34.23222 | 151.19961 | 3018 ft | 260 kts | 41° |
| 2026-05-04 11:19 | -34.21728 | 151.21105 | 3021 ft | 254 kts | 15° |
| 2026-05-04 11:19 | -34.20611 | 151.21518 | 3019 ft | 253 kts | 13° |
| 2026-05-04 11:20 | -34.18946 | 151.22107 | 3014 ft | 242 kts | 13° |
| 2026-05-04 11:20 | -34.17378 | 151.22675 | 3013 ft | 227 kts | 13° |
| 2026-05-04 11:20 | -34.15893 | 151.23075 | 3027 ft | 208 kts | 360° |
| 2026-05-04 11:20 | -34.14519 | 151.22950 | 2934 ft | 193 kts | 345° |
| 2026-05-04 11:22 | -34.06092 | 151.20584 | 1302 ft | 156 kts | 350° |
| 2026-05-04 11:22 | -34.05091 | 151.20336 | 1349 ft | 140 kts | 345° |
| 2026-05-04 11:23 | -34.04121 | 151.20042 | 1371 ft | 146 kts | 346° |
| 2026-05-04 11:23 | -34.03139 | 151.19819 | 1374 ft | 139 kts | 349° |
| 2026-05-04 11:24 | -33.97664 | 151.18384 | 309 ft | 129 kts | 350° |
| 2026-05-04 11:25 | -33.96765 | 151.18154 | 135 ft | 130 kts | 349° |
| 2026-05-04 11:25 | -33.95896 | 151.17926 | 24 ft | 119 kts | 347° |
| 2026-05-04 11:25 | -33.95206 | 151.17750 | 22 ft | 86 kts | 348° |
| 2026-05-04 11:26 | -33.94525 | 151.17682 | 28 ft | 22 kts | 16° |
| 2026-05-04 11:27 | -33.94346 | 151.17739 | 23 ft | 9 kts | 1° |
| 2026-05-04 11:28 | -33.94271 | 151.17719 | 22 ft | 12 kts | 341° |
| 2026-05-04 11:28 | -33.94181 | 151.17687 | 21 ft | 15 kts | 344° |
| 2026-05-04 11:28 | -33.94087 | 151.17685 | 22 ft | 13 kts | 40° |
| 2026-05-04 11:28 | -33.94039 | 151.17779 | 25 ft | 14 kts | 61° |
| 2026-05-04 11:29 | -33.93971 | 151.17794 | 25 ft | 10 kts | 339° |
| 2026-05-04 11:29 | -33.93888 | 151.17776 | 20 ft | 14 kts | 351° |
| 2026-05-04 11:29 | -33.93788 | 151.17785 | 23 ft | 14 kts | 6° |
| 2026-05-04 11:29 | -33.93713 | 151.17798 | 30 ft | 8 kts | 10° |